sensor_id;sensor_type;location;lat;lon;timestamp;pressure;altitude;pressure_sealevel;temperature;humidity
47815;BME280;33579;50.058;18.130;2023-03-04T00:00:41;99435.75;;;-0.59;100.00
47815;BME280;33579;50.058;18.130;2023-03-04T00:01:42;99431.59;;;-0.63;100.00
47815;BME280;33579;50.058;18.130;2023-03-04T00:02:44;99431.75;;;-0.67;100.00
47815;BME280;33579;50.058;18.130;2023-03-04T00:03:45;99430.06;;;-0.68;100.00
47815;BME280;33579;50.058;18.130;2023-03-04T00:04:47;99436.19;;;-0.71;100.00
47815;BME280;33579;50.058;18.130;2023-03-04T00:05:49;99437.72;;;-0.65;100.00
47815;BME280;33579;50.058;18.130;2023-03-04T00:06:50;99433.06;;;-0.55;100.00
47815;BME280;33579;50.058;18.130;2023-03-04T00:07:52;99431.31;;;-0.55;100.00
47815;BME280;33579;50.058;18.130;2023-03-04T00:08:53;99430.22;;;-0.49;100.00
47815;BME280;33579;50.058;18.130;2023-03-04T00:09:55;99439.72;;;-0.50;100.00
47815;BME280;33579;50.058;18.130;2023-03-04T00:10:56;99433.06;;;-0.55;100.00
47815;BME280;33579;50.058;18.130;2023-03-04T00:11:58;99429.63;;;-0.56;100.00
47815;BME280;33579;50.058;18.130;2023-03-04T00:12:59;99431.63;;;-0.64;100.00
47815;BME280;33579;50.058;18.130;2023-03-04T00:14:01;99418.66;;;-0.63;100.00
47815;BME280;33579;50.058;18.130;2023-03-04T00:15:03;99431.56;;;-0.61;100.00
47815;BME280;33579;50.058;18.130;2023-03-04T00:16:05;99433.59;;;-0.71;100.00
47815;BME280;33579;50.058;18.130;2023-03-04T00:17:07;99426.03;;;-0.76;100.00
47815;BME280;33579;50.058;18.130;2023-03-04T00:18:09;99429.47;;;-0.75;100.00
47815;BME280;33579;50.058;18.130;2023-03-04T00:19:10;99425.31;;;-0.79;100.00
47815;BME280;33579;50.058;18.130;2023-03-04T00:20:12;99428.72;;;-0.79;100.00
47815;BME280;33579;50.058;18.130;2023-03-04T00:21:14;99422.72;;;-0.79;100.00
47815;BME280;33579;50.058;18.130;2023-03-04T00:22:16;99421.88;;;-0.80;100.00
47815;BME280;33579;50.058;18.130;2023-03-04T00:23:17;99424.28;;;-0.75;100.00
47815;BME280;33579;50.058;18.130;2023-03-04T00:24:19;99421.66;;;-0.74;100.00
47815;BME280;33579;50.058;18.130;2023-03-04T00:25:20;99419.88;;;-0.72;100.00
47815;BME280;33579;50.058;18.130;2023-03-04T00:26:22;99424.06;;;-0.69;100.00
47815;BME280;33579;50.058;18.130;2023-03-04T00:27:24;99420.56;;;-0.68;100.00
47815;BME280;33579;50.058;18.130;2023-03-04T00:28:25;99422.94;;;-0.62;100.00
47815;BME280;33579;50.058;18.130;2023-03-04T00:29:27;99422.78;;;-0.57;100.00
47815;BME280;33579;50.058;18.130;2023-03-04T00:30:28;99418.22;;;-0.50;100.00
47815;BME280;33579;50.058;18.130;2023-03-04T00:31:30;99423.44;;;-0.52;100.00
47815;BME280;33579;50.058;18.130;2023-03-04T00:32:31;99408.03;;;-0.55;100.00
47815;BME280;33579;50.058;18.130;2023-03-04T00:33:33;99406.13;;;-0.50;100.00
47815;BME280;33579;50.058;18.130;2023-03-04T00:34:35;99404.22;;;-0.45;100.00
47815;BME280;33579;50.058;18.130;2023-03-04T00:35:37;99408.53;;;-0.45;100.00
47815;BME280;33579;50.058;18.130;2023-03-04T00:36:38;99402.53;;;-0.46;100.00
47815;BME280;33579;50.058;18.130;2023-03-04T00:37:40;99402.53;;;-0.46;100.00
47815;BME280;33579;50.058;18.130;2023-03-04T00:38:42;99399.09;;;-0.46;100.00
47815;BME280;33579;50.058;18.130;2023-03-04T00:39:44;99399.94;;;-0.46;100.00
47815;BME280;33579;50.058;18.130;2023-03-04T00:40:46;99397.38;;;-0.46;100.00
47815;BME280;33579;50.058;18.130;2023-03-04T00:41:47;99394.78;;;-0.46;100.00
47815;BME280;33579;50.058;18.130;2023-03-04T00:42:49;99390.50;;;-0.47;100.00
47815;BME280;33579;50.058;18.130;2023-03-04T00:43:50;99386.94;;;-0.44;100.00
47815;BME280;33579;50.058;18.130;2023-03-04T00:44:52;99391.28;;;-0.45;100.00
47815;BME280;33579;50.058;18.130;2023-03-04T00:45:54;99391.59;;;-0.52;100.00
47815;BME280;33579;50.058;18.130;2023-03-04T00:46:56;99384.63;;;-0.50;100.00
47815;BME280;33579;50.058;18.130;2023-03-04T00:47:57;99378.59;;;-0.51;100.00
47815;BME280;33579;50.058;18.130;2023-03-04T00:48:59;99390.50;;;-0.47;100.00
47815;BME280;33579;50.058;18.130;2023-03-04T00:50:00;99380.00;;;-0.42;100.00
47815;BME280;33579;50.058;18.130;2023-03-04T00:51:03;99378.53;;;-0.49;100.00
47815;BME280;33579;50.058;18.130;2023-03-04T00:52:04;99388.75;;;-0.46;100.00
47815;BME280;33579;50.058;18.130;2023-03-04T00:53:06;99377.63;;;-0.48;100.00
47815;BME280;33579;50.058;18.130;2023-03-04T00:54:08;99374.22;;;-0.49;100.00
47815;BME280;33579;50.058;18.130;2023-03-04T00:55:09;99376.81;;;-0.49;100.00
47815;BME280;33579;50.058;18.130;2023-03-04T00:56:11;99375.09;;;-0.50;100.00
47815;BME280;33579;50.058;18.130;2023-03-04T00:57:13;99371.25;;;-0.62;100.00
47815;BME280;33579;50.058;18.130;2023-03-04T00:58:14;99369.09;;;-0.73;100.00
47815;BME280;33579;50.058;18.130;2023-03-04T00:59:16;99371.72;;;-0.74;100.00
47815;BME280;33579;50.058;18.130;2023-03-04T01:00:18;99369.19;;;-0.76;100.00
47815;BME280;33579;50.058;18.130;2023-03-04T01:01:19;99369.31;;;-0.79;100.00
47815;BME280;33579;50.058;18.130;2023-03-04T01:02:21;99362.63;;;-0.85;100.00
47815;BME280;33579;50.058;18.130;2023-03-04T01:03:23;99362.63;;;-0.85;100.00
47815;BME280;33579;50.058;18.130;2023-03-04T01:04:24;99357.53;;;-0.86;100.00
47815;BME280;33579;50.058;18.130;2023-03-04T01:05:26;99356.22;;;-0.98;100.00
47815;BME280;33579;50.058;18.130;2023-03-04T01:06:28;99359.59;;;-0.96;100.00
47815;BME280;33579;50.058;18.130;2023-03-04T01:07:29;99353.34;;;-0.90;100.00
47815;BME280;33579;50.058;18.130;2023-03-04T01:08:31;99354.03;;;-0.85;100.00
47815;BME280;33579;50.058;18.130;2023-03-04T01:09:32;99348.81;;;-0.83;100.00
47815;BME280;33579;50.058;18.130;2023-03-04T01:10:36;99348.75;;;-0.82;100.00
47815;BME280;33579;50.058;18.130;2023-03-04T01:11:37;99337.03;;;-0.91;100.00
47815;BME280;33579;50.058;18.130;2023-03-04T01:12:39;99341.22;;;-0.88;100.00
47815;BME280;33579;50.058;18.130;2023-03-04T01:13:40;99337.75;;;-0.87;100.00
47815;BME280;33579;50.058;18.130;2023-03-04T01:14:43;99335.84;;;-0.82;100.00
47815;BME280;33579;50.058;18.130;2023-03-04T01:15:46;99337.34;;;-0.76;100.00
47815;BME280;33579;50.058;18.130;2023-03-04T01:16:48;99338.09;;;-0.73;100.00
47815;BME280;33579;50.058;18.130;2023-03-04T01:17:50;99342.34;;;-0.72;100.00
47815;BME280;33579;50.058;18.130;2023-03-04T01:18:52;99340.59;;;-0.71;100.00
47815;BME280;33579;50.058;18.130;2023-03-04T01:19:53;99344.56;;;-0.62;100.00
47815;BME280;33579;50.058;18.130;2023-03-04T01:20:55;99331.59;;;-0.61;100.00
47815;BME280;33579;50.058;18.130;2023-03-04T01:21:56;99331.59;;;-0.61;100.00
47815;BME280;33579;50.058;18.130;2023-03-04T01:22:58;99328.34;;;-0.66;100.00
47815;BME280;33579;50.058;18.130;2023-03-04T01:23:59;99326.78;;;-0.70;100.00
47815;BME280;33579;50.058;18.130;2023-03-04T01:25:01;99322.38;;;-0.68;100.00
47815;BME280;33579;50.058;18.130;2023-03-04T01:26:03;99317.47;;;-0.74;100.00
47815;BME280;33579;50.058;18.130;2023-03-04T01:27:05;99314.31;;;-0.82;100.00
47815;BME280;33579;50.058;18.130;2023-03-04T01:28:07;99315.34;;;-0.87;100.00
47815;BME280;33579;50.058;18.130;2023-03-04T01:29:08;99312.94;;;-0.91;100.00
47815;BME280;33579;50.058;18.130;2023-03-04T01:30:11;99307.00;;;-0.93;100.00
47815;BME280;33579;50.058;18.130;2023-03-04T01:31:12;99305.13;;;-0.90;100.00
47815;BME280;33579;50.058;18.130;2023-03-04T01:32:14;99307.56;;;-0.85;100.00
47815;BME280;33579;50.058;18.130;2023-03-04T01:33:15;99302.38;;;-0.85;100.00
47815;BME280;33579;50.058;18.130;2023-03-04T01:34:17;99297.91;;;-0.81;100.00
47815;BME280;33579;50.058;18.130;2023-03-04T01:35:18;99299.72;;;-0.83;100.00
47815;BME280;33579;50.058;18.130;2023-03-04T01:36:20;99303.97;;;-0.82;100.00
47815;BME280;33579;50.058;18.130;2023-03-04T01:37:22;99301.41;;;-0.82;100.00
47815;BME280;33579;50.058;18.130;2023-03-04T01:38:23;99295.41;;;-0.83;100.00
47815;BME280;33579;50.058;18.130;2023-03-04T01:39:25;99294.56;;;-0.83;100.00
47815;BME280;33579;50.058;18.130;2023-03-04T01:40:26;99293.66;;;-0.82;100.00
47815;BME280;33579;50.058;18.130;2023-03-04T01:41:28;99295.16;;;-0.77;100.00
47815;BME280;33579;50.058;18.130;2023-03-04T01:42:32;99292.47;;;-0.74;100.00
47815;BME280;33579;50.058;18.130;2023-03-04T01:43:35;99290.78;;;-0.75;100.00
47815;BME280;33579;50.058;18.130;2023-03-04T01:44:37;99294.16;;;-0.73;100.00
47815;BME280;33579;50.058;18.130;2023-03-04T01:45:39;99290.72;;;-0.73;100.00
47815;BME280;33579;50.058;18.130;2023-03-04T01:46:49;99288.31;;;-0.78;100.00
47815;BME280;33579;50.058;18.130;2023-03-04T01:47:52;99284.22;;;-0.83;100.00
47815;BME280;33579;50.058;18.130;2023-03-04T01:48:53;99282.50;;;-0.83;100.00
47815;BME280;33579;50.058;18.130;2023-03-04T01:49:56;99276.56;;;-0.85;100.00
47815;BME280;33579;50.058;18.130;2023-03-04T01:50:59;99276.47;;;-0.83;100.00
47815;BME280;33579;50.058;18.130;2023-03-04T01:52:00;99280.63;;;-0.79;100.00
47815;BME280;33579;50.058;18.130;2023-03-04T01:53:02;99270.34;;;-0.81;100.00
47815;BME280;33579;50.058;18.130;2023-03-04T01:54:04;99266.91;;;-0.81;100.00
47815;BME280;33579;50.058;18.130;2023-03-04T01:55:14;99264.16;;;-0.77;100.00
47815;BME280;33579;50.058;18.130;2023-03-04T01:56:29;99264.09;;;-0.75;100.00
47815;BME280;33579;50.058;18.130;2023-03-04T01:57:38;99258.09;;;-0.76;100.00
47815;BME280;33579;50.058;18.130;2023-03-04T01:58:39;99258.16;;;-0.77;100.00
47815;BME280;33579;50.058;18.130;2023-03-04T01:59:41;99253.81;;;-0.77;100.00
47815;BME280;33579;50.058;18.130;2023-03-04T02:00:42;99259.72;;;-0.73;100.00
47815;BME280;33579;50.058;18.130;2023-03-04T02:01:53;99249.38;;;-0.73;100.00
47815;BME280;33579;50.058;18.130;2023-03-04T02:03:05;99248.59;;;-0.75;100.00
47815;BME280;33579;50.058;18.130;2023-03-04T02:04:07;99245.97;;;-0.74;100.00
47815;BME280;33579;50.058;18.130;2023-03-04T02:05:09;99250.34;;;-0.76;100.00
47815;BME280;33579;50.058;18.130;2023-03-04T02:06:11;99242.66;;;-0.77;100.00
47815;BME280;33579;50.058;18.130;2023-03-04T02:07:13;99252.88;;;-0.74;100.00
47815;BME280;33579;50.058;18.130;2023-03-04T02:08:15;99243.31;;;-0.72;100.00
47815;BME280;33579;50.058;18.130;2023-03-04T02:09:19;99238.91;;;-0.70;100.00
47815;BME280;33579;50.058;18.130;2023-03-04T02:10:21;99238.22;;;-0.74;100.00
47815;BME280;33579;50.058;18.130;2023-03-04T02:11:23;99227.94;;;-0.75;100.00
47815;BME280;33579;50.058;18.130;2023-03-04T02:12:25;99243.44;;;-0.75;100.00
47815;BME280;33579;50.058;18.130;2023-03-04T02:13:27;99226.91;;;-0.71;100.00
47815;BME280;33579;50.058;18.130;2023-03-04T02:14:29;99233.69;;;-0.68;100.00
47815;BME280;33579;50.058;18.130;2023-03-04T02:15:31;99226.06;;;-0.72;100.00
47815;BME280;33579;50.058;18.130;2023-03-04T02:16:33;99226.06;;;-0.72;100.00
47815;BME280;33579;50.058;18.130;2023-03-04T02:17:35;99226.00;;;-0.70;100.00
47815;BME280;33579;50.058;18.130;2023-03-04T02:18:37;99219.94;;;-0.69;100.00
47815;BME280;33579;50.058;18.130;2023-03-04T02:20:22;99227.63;;;-0.67;100.00
47815;BME280;33579;50.058;18.130;2023-03-04T02:21:29;99229.97;;;-0.61;100.00
47815;BME280;33579;50.058;18.130;2023-03-04T02:22:35;99222.91;;;-0.58;100.00
47815;BME280;33579;50.058;18.130;2023-03-04T02:23:48;99224.59;;;-0.57;100.00
47815;BME280;33579;50.058;18.130;2023-03-04T02:25:02;99218.56;;;-0.55;100.00
47815;BME280;33579;50.058;18.130;2023-03-04T02:26:14;99217.84;;;-0.59;100.00
47815;BME280;33579;50.058;18.130;2023-03-04T02:27:17;99214.41;;;-0.60;100.00
47815;BME280;33579;50.058;18.130;2023-03-04T02:28:22;99211.03;;;-0.62;100.00
47815;BME280;33579;50.058;18.130;2023-03-04T02:29:23;99208.44;;;-0.62;100.00
47815;BME280;33579;50.058;18.130;2023-03-04T02:30:25;99212.06;;;-0.66;100.00
47815;BME280;33579;50.058;18.130;2023-03-04T02:31:31;99212.13;;;-0.67;100.00
47815;BME280;33579;50.058;18.130;2023-03-04T02:32:33;99206.09;;;-0.68;100.00
47815;BME280;33579;50.058;18.130;2023-03-04T02:33:35;99202.69;;;-0.68;100.00
47815;BME280;33579;50.058;18.130;2023-03-04T02:34:47;99206.91;;;-0.66;100.00
47815;BME280;33579;50.058;18.130;2023-03-04T02:35:50;99205.00;;;-0.62;100.00
47815;BME280;33579;50.058;18.130;2023-03-04T02:36:53;99198.97;;;-0.61;100.00
47815;BME280;33579;50.058;18.130;2023-03-04T02:37:54;99197.22;;;-0.61;100.00
47815;BME280;33579;50.058;18.130;2023-03-04T02:39:03;99199.03;;;-0.63;100.00
47815;BME280;33579;50.058;18.130;2023-03-04T02:40:07;99196.81;;;-0.72;100.00
47815;BME280;33579;50.058;18.130;2023-03-04T02:41:15;99193.41;;;-0.73;100.00
47815;BME280;33579;50.058;18.130;2023-03-04T02:42:18;99193.31;;;-0.71;100.00
47815;BME280;33579;50.058;18.130;2023-03-04T02:43:20;99194.09;;;-0.69;100.00
47815;BME280;33579;50.058;18.130;2023-03-04T02:44:25;99200.06;;;-0.67;100.00
47815;BME280;33579;50.058;18.130;2023-03-04T02:45:48;99199.97;;;-0.65;100.00
47815;BME280;33579;50.058;18.130;2023-03-04T02:46:50;99199.06;;;-0.64;100.00
47815;BME280;33579;50.058;18.130;2023-03-04T02:47:52;99197.06;;;-0.78;100.00
47815;BME280;33579;50.058;18.130;2023-03-04T02:48:53;99194.53;;;-0.80;100.00
47815;BME280;33579;50.058;18.130;2023-03-04T02:49:55;99194.53;;;-0.80;100.00
47815;BME280;33579;50.058;18.130;2023-03-04T02:50:56;99191.03;;;-0.79;100.00
47815;BME280;33579;50.058;18.130;2023-03-04T02:52:02;99188.72;;;-0.85;100.00
47815;BME280;33579;50.058;18.130;2023-03-04T02:53:05;99191.97;;;-1.02;100.00
47815;BME280;33579;50.058;18.130;2023-03-04T02:54:18;99175.75;;;-1.06;100.00
47815;BME280;33579;50.058;18.130;2023-03-04T02:55:20;99174.66;;;-1.00;100.00
47815;BME280;33579;50.058;18.130;2023-03-04T02:56:22;99178.97;;;-1.01;100.00
47815;BME280;33579;50.058;18.130;2023-03-04T02:57:23;99185.91;;;-1.01;100.00
47815;BME280;33579;50.058;18.130;2023-03-04T02:58:28;99177.25;;;-1.00;100.00
47815;BME280;33579;50.058;18.130;2023-03-04T02:59:29;99181.50;;;-0.99;100.00
47815;BME280;33579;50.058;18.130;2023-03-04T03:00:31;99179.78;;;-0.98;100.00
47815;BME280;33579;50.058;18.130;2023-03-04T03:01:33;99175.41;;;-0.96;100.00
47815;BME280;33579;50.058;18.130;2023-03-04T03:02:34;99170.09;;;-0.93;100.00
47815;BME280;33579;50.058;18.130;2023-03-04T03:03:36;99172.56;;;-0.90;100.00
47815;BME280;33579;50.058;18.130;2023-03-04T03:04:38;99171.59;;;-0.88;100.00
47815;BME280;33579;50.058;18.130;2023-03-04T03:05:44;99164.66;;;-0.87;100.00
47815;BME280;33579;50.058;18.130;2023-03-04T03:06:46;99173.28;;;-0.87;100.00
47815;BME280;33579;50.058;18.130;2023-03-04T03:07:48;99171.59;;;-0.88;100.00
47815;BME280;33579;50.058;18.130;2023-03-04T03:08:50;99167.25;;;-0.87;100.00
47815;BME280;33579;50.058;18.130;2023-03-04T03:09:52;99162.03;;;-0.86;100.00
47815;BME280;33579;50.058;18.130;2023-03-04T03:10:54;99163.72;;;-0.85;100.00
47815;BME280;33579;50.058;18.130;2023-03-04T03:11:56;99159.28;;;-0.81;100.00
47815;BME280;33579;50.058;18.130;2023-03-04T03:12:58;99166.13;;;-0.80;100.00
47815;BME280;33579;50.058;18.130;2023-03-04T03:14:00;99162.00;;;-0.84;100.00
47815;BME280;33579;50.058;18.130;2023-03-04T03:15:02;99157.13;;;-0.92;100.00
47815;BME280;33579;50.058;18.130;2023-03-04T03:16:04;99159.31;;;-1.03;100.00
47815;BME280;33579;50.058;18.130;2023-03-04T03:17:05;99157.72;;;-1.07;100.00
47815;BME280;33579;50.058;18.130;2023-03-04T03:18:08;99156.22;;;-1.13;100.00
47815;BME280;33579;50.058;18.130;2023-03-04T03:19:10;99157.09;;;-1.13;100.00
47815;BME280;33579;50.058;18.130;2023-03-04T03:20:13;99153.41;;;-1.07;100.00
47815;BME280;33579;50.058;18.130;2023-03-04T03:21:15;99160.31;;;-1.07;100.00
47815;BME280;33579;50.058;18.130;2023-03-04T03:22:18;99155.91;;;-1.05;100.00
47815;BME280;33579;50.058;18.130;2023-03-04T03:23:19;99160.25;;;-1.06;100.00
47815;BME280;33579;50.058;18.130;2023-03-04T03:24:21;99148.25;;;-1.07;100.00
47815;BME280;33579;50.058;18.130;2023-03-04T03:25:23;99147.47;;;-1.09;100.00
47815;BME280;33579;50.058;18.130;2023-03-04T03:26:27;99154.31;;;-1.08;100.00
47815;BME280;33579;50.058;18.130;2023-03-04T03:27:28;99147.47;;;-1.09;100.00
47815;BME280;33579;50.058;18.130;2023-03-04T03:28:30;99152.69;;;-1.10;100.00
47815;BME280;33579;50.058;18.130;2023-03-04T03:29:32;99150.06;;;-1.09;100.00
47815;BME280;33579;50.058;18.130;2023-03-04T03:30:34;99151.88;;;-1.11;100.00
47815;BME280;33579;50.058;18.130;2023-03-04T03:31:38;99153.66;;;-1.13;100.00
47815;BME280;33579;50.058;18.130;2023-03-04T03:32:40;99153.78;;;-1.16;100.00
47815;BME280;33579;50.058;18.130;2023-03-04T03:33:41;99151.78;;;-1.32;100.00
47815;BME280;33579;50.058;18.130;2023-03-04T03:34:44;99153.78;;;-1.38;100.00
47815;BME280;33579;50.058;18.130;2023-03-04T03:35:45;99155.84;;;-1.48;100.00
47815;BME280;33579;50.058;18.130;2023-03-04T03:36:47;99162.63;;;-1.46;100.00
47815;BME280;33579;50.058;18.130;2023-03-04T03:37:49;99157.25;;;-1.39;100.00
47815;BME280;33579;50.058;18.130;2023-03-04T03:38:50;99163.13;;;-1.36;100.00
47815;BME280;33579;50.058;18.130;2023-03-04T03:39:52;99162.91;;;-1.30;100.00
47815;BME280;33579;50.058;18.130;2023-03-04T03:40:53;99164.53;;;-1.27;100.00
47815;BME280;33579;50.058;18.130;2023-03-04T03:41:55;99165.34;;;-1.27;100.00
47815;BME280;33579;50.058;18.130;2023-03-04T03:42:56;99167.13;;;-1.27;100.00
47815;BME280;33579;50.058;18.130;2023-03-04T03:43:58;99173.00;;;-1.23;100.00
47815;BME280;33579;50.058;18.130;2023-03-04T03:45:00;99168.66;;;-1.23;100.00
47815;BME280;33579;50.058;18.130;2023-03-04T03:46:01;99169.63;;;-1.25;100.00
47815;BME280;33579;50.058;18.130;2023-03-04T03:47:03;99166.22;;;-1.26;100.00
47815;BME280;33579;50.058;18.130;2023-03-04T03:48:05;99168.78;;;-1.26;100.00
47815;BME280;33579;50.058;18.130;2023-03-04T03:49:06;99170.47;;;-1.25;100.00
47815;BME280;33579;50.058;18.130;2023-03-04T03:50:08;99169.63;;;-1.25;100.00
47815;BME280;33579;50.058;18.130;2023-03-04T03:51:10;99161.81;;;-1.24;100.00
47815;BME280;33579;50.058;18.130;2023-03-04T03:52:12;99163.56;;;-1.24;100.00
47815;BME280;33579;50.058;18.130;2023-03-04T03:53:13;99155.72;;;-1.21;100.00
47815;BME280;33579;50.058;18.130;2023-03-04T03:54:15;99163.94;;;-1.34;100.00
47815;BME280;33579;50.058;18.130;2023-03-04T03:55:16;99157.91;;;-1.34;100.00
47815;BME280;33579;50.058;18.130;2023-03-04T03:56:18;99164.03;;;-1.37;100.00
47815;BME280;33579;50.058;18.130;2023-03-04T03:57:19;99164.22;;;-1.42;100.00
47815;BME280;33579;50.058;18.130;2023-03-04T03:58:21;99164.41;;;-1.46;100.00
47815;BME280;33579;50.058;18.130;2023-03-04T03:59:22;99165.22;;;-1.46;100.00
47815;BME280;33579;50.058;18.130;2023-03-04T04:00:24;99165.94;;;-1.42;100.00
47815;BME280;33579;50.058;18.130;2023-03-04T04:01:26;99165.91;;;-1.40;100.00
47815;BME280;33579;50.058;18.130;2023-03-04T04:02:27;99166.59;;;-1.37;100.00
47815;BME280;33579;50.058;18.130;2023-03-04T04:03:29;99167.47;;;-1.36;100.00
47815;BME280;33579;50.058;18.130;2023-03-04T04:04:31;99166.69;;;-1.38;100.00
47815;BME280;33579;50.058;18.130;2023-03-04T04:05:33;99166.84;;;-1.43;100.00
47815;BME280;33579;50.058;18.130;2023-03-04T04:06:34;99169.44;;;-1.43;100.00
47815;BME280;33579;50.058;18.130;2023-03-04T04:07:36;99157.47;;;-1.46;100.00
47815;BME280;33579;50.058;18.130;2023-03-04T04:08:38;99159.44;;;-1.52;100.00
47815;BME280;33579;50.058;18.130;2023-03-04T04:09:39;99160.34;;;-1.53;100.00
47815;BME280;33579;50.058;18.130;2023-03-04T04:10:41;99161.13;;;-1.51;100.00
47815;BME280;33579;50.058;18.130;2023-03-04T04:11:43;99161.88;;;-1.48;100.00
47815;BME280;33579;50.058;18.130;2023-03-04T04:12:45;99164.28;;;-1.43;100.00
47815;BME280;33579;50.058;18.130;2023-03-04T04:13:46;99168.41;;;-1.39;100.00
47815;BME280;33579;50.058;18.130;2023-03-04T04:14:48;99167.16;;;-1.51;100.00
47815;BME280;33579;50.058;18.130;2023-03-04T04:15:51;99163.69;;;-1.74;100.00
47815;BME280;33579;50.058;18.130;2023-03-04T04:16:52;99168.78;;;-1.72;100.00
47815;BME280;33579;50.058;18.130;2023-03-04T04:17:54;99160.00;;;-1.66;100.00
47815;BME280;33579;50.058;18.130;2023-03-04T04:18:56;99167.38;;;-1.57;100.00
47815;BME280;33579;50.058;18.130;2023-03-04T04:19:57;99168.94;;;-1.53;100.00
47815;BME280;33579;50.058;18.130;2023-03-04T04:20:59;99172.59;;;-1.59;100.00
47815;BME280;33579;50.058;18.130;2023-03-04T04:22:01;99173.53;;;-1.61;100.00
47815;BME280;33579;50.058;18.130;2023-03-04T04:23:03;99180.72;;;-1.70;100.00
47815;BME280;33579;50.058;18.130;2023-03-04T04:24:04;99170.03;;;-1.82;100.00
47815;BME280;33579;50.058;18.130;2023-03-04T04:25:06;99177.03;;;-1.86;100.00
47815;BME280;33579;50.058;18.130;2023-03-04T04:26:08;99186.47;;;-1.87;100.00
47815;BME280;33579;50.058;18.130;2023-03-04T04:27:10;99186.16;;;-1.77;100.00
47815;BME280;33579;50.058;18.130;2023-03-04T04:28:12;99184.19;;;-1.71;100.00
47815;BME280;33579;50.058;18.130;2023-03-04T04:29:13;99189.22;;;-1.67;100.00
47815;BME280;33579;50.058;18.130;2023-03-04T04:30:15;99193.34;;;-1.62;100.00
47815;BME280;33579;50.058;18.130;2023-03-04T04:31:17;99189.44;;;-1.72;100.00
47815;BME280;33579;50.058;18.130;2023-03-04T04:32:18;99194.84;;;-1.80;100.00
47815;BME280;33579;50.058;18.130;2023-03-04T04:33:20;99186.94;;;-1.75;100.00
47815;BME280;33579;50.058;18.130;2023-03-04T04:34:21;99190.09;;;-1.67;100.00
47815;BME280;33579;50.058;18.130;2023-03-04T04:35:23;99183.41;;;-1.73;100.00
47815;BME280;33579;50.058;18.130;2023-03-04T04:36:25;99196.44;;;-1.76;100.00
47815;BME280;33579;50.058;18.130;2023-03-04T04:37:26;99194.97;;;-1.83;100.00
47815;BME280;33579;50.058;18.130;2023-03-04T04:38:28;99192.25;;;-1.80;100.00
47815;BME280;33579;50.058;18.130;2023-03-04T04:39:29;99195.69;;;-1.79;100.00
47815;BME280;33579;50.058;18.130;2023-03-04T04:40:31;99195.03;;;-1.85;100.00
47815;BME280;33579;50.058;18.130;2023-03-04T04:41:38;99191.44;;;-1.80;100.00
47815;BME280;33579;50.058;18.130;2023-03-04T04:42:40;99194.91;;;-1.81;100.00
47815;BME280;33579;50.058;18.130;2023-03-04T04:43:41;99191.59;;;-1.85;100.00
47815;BME280;33579;50.058;18.130;2023-03-04T04:44:44;99200.19;;;-1.85;100.00
47815;BME280;33579;50.058;18.130;2023-03-04T04:45:46;99192.38;;;-1.83;100.00
47815;BME280;33579;50.058;18.130;2023-03-04T04:46:48;99194.63;;;-1.74;100.00
47815;BME280;33579;50.058;18.130;2023-03-04T04:47:53;99196.09;;;-1.66;100.00
47815;BME280;33579;50.058;18.130;2023-03-04T04:48:55;99189.97;;;-1.64;100.00
47815;BME280;33579;50.058;18.130;2023-03-04T04:49:57;99193.25;;;-1.59;100.00
47815;BME280;33579;50.058;18.130;2023-03-04T04:50:58;99202.53;;;-1.54;100.00
47815;BME280;33579;50.058;18.130;2023-03-04T04:52:00;99194.56;;;-1.48;100.00
47815;BME280;33579;50.058;18.130;2023-03-04T04:53:01;99194.38;;;-1.44;100.00
47815;BME280;33579;50.058;18.130;2023-03-04T04:54:04;99195.06;;;-1.38;100.00
47815;BME280;33579;50.058;18.130;2023-03-04T04:55:05;99188.88;;;-1.34;100.00
47815;BME280;33579;50.058;18.130;2023-03-04T04:56:17;99196.41;;;-1.28;100.00
47815;BME280;33579;50.058;18.130;2023-03-04T04:57:19;99191.13;;;-1.25;100.00
47815;BME280;33579;50.058;18.130;2023-03-04T04:58:21;99187.59;;;-1.22;100.00
47815;BME280;33579;50.058;18.130;2023-03-04T04:59:23;99192.50;;;-1.16;100.00
47815;BME280;33579;50.058;18.130;2023-03-04T05:00:24;99186.25;;;-1.10;100.00
47815;BME280;33579;50.058;18.130;2023-03-04T05:01:26;99190.47;;;-1.08;100.00
47815;BME280;33579;50.058;18.130;2023-03-04T05:02:28;99187.94;;;-1.09;100.00
47815;BME280;33579;50.058;18.130;2023-03-04T05:03:30;99192.06;;;-1.05;100.00
47815;BME280;33579;50.058;18.130;2023-03-04T05:04:32;99187.63;;;-1.02;100.00
47815;BME280;33579;50.058;18.130;2023-03-04T05:05:33;99189.25;;;-0.99;100.00
47815;BME280;33579;50.058;18.130;2023-03-04T05:06:35;99193.56;;;-1.00;100.00
47815;BME280;33579;50.058;18.130;2023-03-04T05:07:36;99188.22;;;-0.95;100.00
47815;BME280;33579;50.058;18.130;2023-03-04T05:08:38;99182.06;;;-0.91;100.00
47815;BME280;33579;50.058;18.130;2023-03-04T05:09:39;99187.88;;;-0.86;100.00
47815;BME280;33579;50.058;18.130;2023-03-04T05:10:41;99187.03;;;-0.86;100.00
47815;BME280;33579;50.058;18.130;2023-03-04T05:11:42;99188.72;;;-0.85;100.00
47815;BME280;33579;50.058;18.130;2023-03-04T05:12:44;99188.47;;;-0.79;100.00
47815;BME280;33579;50.058;18.130;2023-03-04T05:13:47;99185.69;;;-0.74;100.00
47815;BME280;33579;50.058;18.130;2023-03-04T05:14:48;99189.78;;;-0.68;100.00
47815;BME280;33579;50.058;18.130;2023-03-04T05:15:54;99184.47;;;-0.65;100.00
47815;BME280;33579;50.058;18.130;2023-03-04T05:16:56;99183.47;;;-0.61;100.00
47815;BME280;33579;50.058;18.130;2023-03-04T05:17:58;99185.06;;;-0.59;100.00
47815;BME280;33579;50.058;18.130;2023-03-04T05:18:59;99180.63;;;-0.55;100.00
47815;BME280;33579;50.058;18.130;2023-03-04T05:20:01;99183.19;;;-0.55;100.00
47815;BME280;33579;50.058;18.130;2023-03-04T05:21:03;99185.78;;;-0.55;100.00
47815;BME280;33579;50.058;18.130;2023-03-04T05:22:05;99183.38;;;-0.60;100.00
47815;BME280;33579;50.058;18.130;2023-03-04T05:23:07;99190.56;;;-0.66;100.00